Share

Milford, UT (84751)

MesoWest Milford UT US CEMP (MCMP14) Elev 5001 ft | 38.39 °N, 113.01 °W | Change Station

Current weather conditions updated 57 minutes ago

Clear
Clear
46 °F
Feels Like 46 °F
N
2
Wind Variable Wind from WNW
Gusts 4.0 mph
Sunrise 6:54 AM
Sunset 8:09 PM
Moon Waning Gibbous

Tomorrow is forecast to be Much Warmer than today.

Pressure 29.94 in
Visibility 10.0 miles
Clouds Clear
Windchill 46 °F
Dew Point 18 °F
Humidity 33%
Rainfall -999.00 in
Snow Depth Not available.
UV 0 out of 16
Pollen 9.20 out of 12
Air Quality Not available.
Flu Activity Local Activity
METAR KMLF 170452Z AUTO 34008KT 10SM CLR 05/M08 A3000 RMK AO2 SLP137 T00501078

More Conditions Fewer Conditions

Pressure 29.94 in
Visibility 10.0 miles
Clouds Clear
Windchill 46 °F
Dew Point 18 °F
Humidity 33%
Rainfall -999.00 in
Snow Depth Not available.
UV 0 out of 16
Pollen 9.20 out of 12
Air Quality Not available.
Flu Activity Local Activity
METAR KMLF 170452Z AUTO 34008KT 10SM CLR 05/M08 A3000 RMK AO2 SLP137 T00501078

More Conditions Fewer Conditions

10-Day Forecast

Almanac

Astronomy

Apr. 16, 2014 Rise Set
Actual Time 6:54 AM MDT 8:09 PM MDT
Civil Twilight 6:27 AM MDT 8:36 PM MDT
Nautical Twilight 5:54 AM MDT 9:09 PM MDT
Astronomical Twilight 5:20 AM MDT 9:44 PM MDT
Moon 9:56 PM MDT (4/16) 7:45 AM MDT (4/16)
Length of Visible Light 14h 09m
Length of Day
13h 14m
Tomorrow will be 2m 20s longer.
Waning Gibbous, 96% of the Moon is Illuminated
Apr 17
Waning Gibbous
Apr 22
Last Quarter
Apr 29
New
May 6
First Quarter
May 14
Full

Yesterday's Extremes

State Highs State Lows

Community

  • Sunset over the Bay
    Sunset over the Bay
  • symphony in blue....
    symphony in blue....
  • Dawn Surprise
    Dawn Surprise
  • Yucca delight
    Yucca delight
  • Sunset inside of the Ocean
    Sunset inside of the Ocean

WunderPhotos

Upload Photos

1,701,871 photos uploaded!

WunderBlogs® & News

Nearby

Snow Depth

Station Depth Elevation
Merchant Valley 27 in 8750 ft
Kimberly Mine 25 in 9300 ft
Big Flat 54 in 10290 ft
Castle Valley 12 in 9580 ft
Box Creek 5 in 9800 ft

Coastal Water Temperatures

Place Temperature
No Stations Reporting

Earthquake Activity

City Distance Mag. Time & Date
No recent earthquake activity has been reported nearby.
Minimum magnitude displayed is 2.5.

Nearby Weather Stations

Station Location Temp. Windchill Dew Point Humidity Wind Precip. Elev Updated Type
MesoWest Milford , Milford, UT 46 °F 46 °F 18 °F 33% WNW  at  2 mph 0.00 in / hr 5001 ft 10:50 PM MDT MADIS
MesoWest UPTON , Milford, UT 43 °F 43 °F - - North  at  - 0.00 in / hr 5018 ft 11:00 PM MDT MADIS
MesoWest MURDOC , Milford, UT 46 °F 46 °F - - North  at  - 0.00 in / hr 4958 ft 9:35 PM MDT MADIS
RAWS BRIMSTONE RESERVOIR UT, Milford, UT 45 °F 45 °F 19 °F 35% NNW  at  2 mph 0.00 in / hr 5620 ft 10:25 PM MDT MADIS

Show More Stations Show Fewer Stations

What do you think?

We're not finished. Please let us know what you like, what you don't like, and what you are still missing.